Time;durP1;ratioP1;P1;durP2;ratioP2;P2;SDS_P1;SDS_P2;PMS_P1;PMS_P2;Temp;Humidity;BMP_temperature;BMP_pressure;BME280_temperature;BME280_humidity;BME280_pressure;Samples;Min_cycle;Max_cycle;Signal;HPM_P1;HPM_P2
2021/05/04 00:02:17;;;;;;;25.17;15.90;;;281.70;1766.40;;;;;;5117027;27;20564;-74
2021/05/04 00:04:43;;;;;;;26.30;16.42;;;281.70;1792.00;;;;;;5135600;27;20072;-76
2021/05/04 00:07:09;;;;;;;27.20;16.13;;;281.70;1792.00;;;;;;5134019;27;20400;-74
2021/05/04 00:09:34;;;;;;;26.02;16.60;;;281.70;1766.40;;;;;;5135279;27;20023;-74
2021/05/04 00:12:00;;;;;;;25.95;16.95;;;281.70;1766.40;;;;;;5116648;27;20114;-74
2021/05/04 00:14:28;;;;;;;24.08;15.75;;;281.70;1766.40;;;;;;5115906;27;20789;-75
2021/05/04 00:16:54;;;;;;;30.45;17.67;;;281.60;1766.40;;;;;;5116280;27;20035;-75
2021/05/04 00:19:19;;;;;;;26.35;16.52;;;281.60;1766.40;;;;;;5135321;27;20027;-75
2021/05/04 00:21:45;;;;;;;28.67;15.63;;;281.60;1792.00;;;;;;5116603;27;20034;-75
2021/05/04 00:24:11;;;;;;;29.00;15.88;;;281.60;1792.00;;;;;;5135027;27;20019;-74
2021/05/04 00:26:36;;;;;;;24.33;16.20;;;281.60;1766.40;;;;;;5134799;27;20063;-74
2021/05/04 00:29:02;;;;;;;25.13;16.73;;;281.60;1792.00;;;;;;5134963;27;20062;-74
2021/05/04 00:31:28;;;;;;;22.40;16.10;;;281.60;1766.40;;;;;;5116323;27;20023;-74
2021/05/04 00:33:54;;;;;;;22.48;15.77;;;256.90;1766.40;;;;;;5133087;27;20373;-74
2021/05/04 00:36:20;;;;;;;27.38;15.88;;;256.90;1766.40;;;;;;5116429;27;20023;-74
2021/05/04 00:38:46;;;;;;;22.50;15.63;;;256.90;1766.40;;;;;;5116321;27;20023;-74
2021/05/04 00:41:12;;;;;;;25.00;15.75;;;256.80;1766.40;;;;;;5134609;27;20023;-74
2021/05/04 00:43:37;;;;;;;21.55;14.82;;;256.80;1766.40;;;;;;5134964;27;20032;-75
2021/05/04 00:46:03;;;;;;;24.15;15.15;;;256.80;1766.40;;;;;;5132967;27;20035;-75
2021/05/04 00:48:30;;;;;;;25.20;16.40;;;256.70;1792.00;;;;;;5115973;27;20034;-75
2021/05/04 00:50:57;;;;;;;22.15;14.93;;;256.70;1792.00;;;;;;5116125;27;20023;-73
2021/05/04 00:53:23;;;;;;;24.65;15.65;;;256.70;1792.00;;;;;;5134497;27;20380;-75
2021/05/04 00:55:50;;;;;;;28.25;16.13;;;256.70;1792.00;;;;;;5133885;27;20026;-74
2021/05/04 00:58:16;;;;;;;25.65;16.98;;;256.70;1766.40;;;;;;5134328;27;20016;-74
2021/05/04 01:00:42;;;;;;;23.25;14.63;;;256.70;1792.00;;;;;;5134654;27;20483;-76
2021/05/04 01:03:10;;;;;;;26.90;16.02;;;256.60;1792.00;;;;;;5134235;27;20083;-73
2021/05/04 01:05:35;;;;;;;28.60;16.17;;;256.50;1817.60;;;;;;5133917;27;20015;-75
2021/05/04 01:08:01;;;;;;;22.80;15.00;;;256.50;1817.60;;;;;;5135126;27;20412;-73
2021/05/04 01:10:27;;;;;;;26.48;15.57;;;256.50;1817.60;;;;;;5115789;28;20892;-74
2021/05/04 01:12:53;;;;;;;24.02;16.42;;;256.60;1817.60;;;;;;5115804;27;20039;-74
2021/05/04 01:15:19;;;;;;;23.92;16.48;;;256.50;1817.60;;;;;;5133877;27;20019;-74
2021/05/04 01:17:45;;;;;;;24.20;17.15;;;256.50;1817.60;;;;;;5115115;28;20100;-75
2021/05/04 01:20:11;;;;;;;23.92;16.02;;;256.50;1817.60;;;;;;5115652;28;20050;-75
2021/05/04 01:22:37;;;;;;;21.50;15.20;;;256.50;1843.20;;;;;;5134204;28;20023;-75
2021/05/04 01:25:05;;;;;;;23.75;15.55;;;256.50;1843.20;;;;;;5115682;28;20023;-74
2021/05/04 01:27:30;;;;;;;23.10;17.10;;;256.40;1843.20;;;;;;5115654;27;20191;-75
2021/05/04 01:29:56;;;;;;;22.17;16.23;;;256.40;1843.20;;;;;;5119026;27;20101;-75
2021/05/04 01:32:22;;;;;;;28.13;15.90;;;256.40;1843.20;;;;;;5138281;27;20460;-75
2021/05/04 01:34:48;;;;;;;19.08;15.50;;;256.40;1843.20;;;;;;5119869;27;20023;-74
2021/05/04 01:37:14;;;;;;;25.52;17.50;;;256.30;1843.20;;;;;;5137220;27;20027;-75
2021/05/04 01:39:42;;;;;;;21.92;16.80;;;256.30;1843.20;;;;;;5138066;27;20046;-75
2021/05/04 01:42:08;;;;;;;26.27;17.88;;;256.30;1843.20;;;;;;5119719;27;20037;-75
2021/05/04 01:44:34;;;;;;;28.80;17.77;;;256.30;1868.80;;;;;;5138116;27;20023;-75
2021/05/04 01:47:00;;;;;;;23.25;16.73;;;256.40;1868.80;;;;;;5138060;27;20068;-75
2021/05/04 01:49:26;;;;;;;22.13;16.55;;;256.30;1868.80;;;;;;5138011;27;20023;-73
2021/05/04 01:51:55;;;;;;;23.02;17.17;;;256.30;1868.80;;;;;;5136310;27;20031;-75
2021/05/04 01:54:22;;;;;;;25.17;15.75;;;256.30;1843.20;;;;;;5136203;27;20084;-73
2021/05/04 01:56:49;;;;;;;24.90;16.60;;;256.40;1843.20;;;;;;5138145;27;20031;-74
2021/05/04 01:59:15;;;;;;;22.83;17.02;;;256.30;1843.20;;;;;;5137809;27;20031;-74
2021/05/04 02:01:40;;;;;;;21.85;15.88;;;256.30;1843.20;;;;;;5137888;27;20023;-74
2021/05/04 02:04:06;;;;;;;26.10;16.67;;;256.30;1843.20;;;;;;5119364;27;20023;-74
2021/05/04 02:06:32;;;;;;;23.05;15.43;;;256.30;1843.20;;;;;;5137981;27;20031;-74
2021/05/04 02:08:57;;;;;;;23.90;16.02;;;256.30;1843.20;;;;;;5137637;27;20031;-75
2021/05/04 02:11:23;;;;;;;21.45;17.17;;;256.20;1843.20;;;;;;5119156;27;20093;-75
2021/05/04 02:13:49;;;;;;;22.67;17.48;;;256.20;1843.20;;;;;;5137567;27;20050;-75
2021/05/04 02:16:14;;;;;;;22.35;15.93;;;256.10;1843.20;;;;;;5137603;27;20023;-74
2021/05/04 02:18:40;;;;;;;21.33;15.63;;;256.10;1843.20;;;;;;5137251;27;20482;-75
2021/05/04 02:21:06;;;;;;;25.02;15.70;;;256.10;1843.20;;;;;;5135145;27;20031;-75
2021/05/04 02:23:32;;;;;;;22.52;16.40;;;256.10;1843.20;;;;;;5137585;27;20106;-75
2021/05/04 02:25:58;;;;;;;21.52;16.00;;;256.10;1843.20;;;;;;5118725;27;20027;-76
2021/05/04 02:28:24;;;;;;;26.63;17.33;;;256.10;1843.20;;;;;;5137247;27;20027;-74
2021/05/04 02:30:50;;;;;;;20.45;14.75;;;256.10;1843.20;;;;;;5137286;27;20075;-76
2021/05/04 02:33:15;;;;;;;22.83;16.13;;;256.00;1843.20;;;;;;5137134;27;20098;-75
2021/05/04 02:35:41;;;;;;;25.52;16.58;;;256.00;1817.60;;;;;;5137288;27;20023;-75
2021/05/04 02:38:07;;;;;;;21.13;16.25;;;256.00;1868.80;;;;;;5118697;27;20468;-75
2021/05/04 02:40:32;;;;;;;22.80;15.93;;;256.00;1868.80;;;;;;5117986;27;20080;-75
2021/05/04 02:42:58;;;;;;;22.92;16.45;;;231.30;1868.80;;;;;;5136999;27;20380;-75
2021/05/04 02:45:24;;;;;;;20.60;15.63;;;256.00;1868.80;;;;;;5137027;27;20456;-75
2021/05/04 02:47:49;;;;;;;25.05;16.35;;;231.30;1868.80;;;;;;5118437;27;20023;-75
2021/05/04 02:50:15;;;;;;;20.33;15.73;;;231.30;1868.80;;;;;;5136826;27;20353;-74
2021/05/04 02:52:41;;;;;;;27.40;16.38;;;231.30;1843.20;;;;;;5137073;27;20404;-76
2021/05/04 02:55:07;;;;;;;21.30;15.48;;;231.30;1868.80;;;;;;5118308;27;20388;-75
2021/05/04 02:57:33;;;;;;;19.58;15.43;;;231.30;1868.80;;;;;;5117530;27;20031;-75
2021/05/04 02:59:59;;;;;;;21.73;15.77;;;231.30;1868.80;;;;;;5134182;27;20034;-74
2021/05/04 03:02:24;;;;;;;19.52;16.77;;;231.30;1843.20;;;;;;5135350;27;20020;-74
2021/05/04 03:04:51;;;;;;;23.63;15.75;;;231.30;1843.20;;;;;;5118190;27;20030;-76
2021/05/04 03:07:17;;;;;;;20.90;15.50;;;231.30;1868.80;;;;;;5118095;27;20475;-75
2021/05/04 03:09:42;;;;;;;18.65;15.40;;;231.30;1843.20;;;;;;5136442;27;20027;-75
2021/05/04 03:12:08;;;;;;;22.42;16.50;;;231.30;1868.80;;;;;;5136700;27;20034;-74
2021/05/04 03:14:34;;;;;;;20.92;15.70;;;231.30;1843.20;;;;;;5117950;27;20403;-75
2021/05/04 03:17:00;;;;;;;21.92;16.20;;;231.30;1843.20;;;;;;5136182;27;20019;-74
2021/05/04 03:19:25;;;;;;;23.40;15.95;;;231.30;1868.80;;;;;;5134934;27;20023;-74
2021/05/04 03:21:51;;;;;;;20.58;15.15;;;231.30;1868.80;;;;;;5136136;27;20023;-76
2021/05/04 03:24:17;;;;;;;23.98;18.05;;;231.20;1843.20;;;;;;5136121;27;20027;-75
2021/05/04 03:26:45;;;;;;;20.13;16.75;;;231.20;1843.20;;;;;;5136191;27;20051;-75
2021/05/04 03:29:11;;;;;;;19.52;15.27;;;231.20;1868.80;;;;;;5137152;27;20436;-75
2021/05/04 03:31:36;;;;;;;22.85;15.73;;;231.20;1868.80;;;;;;5135890;27;20058;-75
2021/05/04 03:34:02;;;;;;;20.75;15.98;;;231.20;1868.80;;;;;;5136393;27;20031;-75
2021/05/04 03:36:28;;;;;;;19.92;14.02;;;231.20;1868.80;;;;;;5118252;27;20499;-75
2021/05/04 03:38:54;;;;;;;19.38;14.85;;;231.20;1868.80;;;;;;5134612;27;20020;-75
2021/05/04 03:41:20;;;;;;;20.98;15.93;;;231.20;1894.40;;;;;;5135527;27;20556;-76
2021/05/04 03:43:46;;;;;;;21.25;15.80;;;231.20;1868.80;;;;;;5116208;27;20123;-75
2021/05/04 03:46:11;;;;;;;17.40;14.65;;;231.20;1843.20;;;;;;5135302;27;20019;-76
2021/05/04 03:48:37;;;;;;;21.33;15.88;;;231.10;1868.80;;;;;;5116706;27;20507;-75
2021/05/04 03:51:03;;;;;;;21.80;15.45;;;231.10;1894.40;;;;;;5134437;27;20023;-73
2021/05/04 03:53:31;;;;;;;20.13;16.08;;;231.20;1868.80;;;;;;5134977;27;20066;-74
2021/05/04 03:55:56;;;;;;;20.27;15.38;;;231.10;1894.40;;;;;;5116149;27;20035;-74
2021/05/04 03:58:22;;;;;;;23.52;16.38;;;231.20;1894.40;;;;;;5117024;27;20102;-74
2021/05/04 04:00:48;;;;;;;27.00;18.08;;;231.20;1894.40;;;;;;5117008;27;20499;-75
2021/05/04 04:03:13;;;;;;;33.70;20.85;;;231.20;1894.40;;;;;;5117019;27;20031;-74
2021/05/04 04:05:39;;;;;;;35.13;22.77;;;231.30;1868.80;;;;;;5135328;27;20025;-74
2021/05/04 04:08:05;;;;;;;48.13;27.52;;;231.30;1894.40;;;;;;5135273;27;20106;-73
2021/05/04 04:10:31;;;;;;;58.65;32.88;;;231.30;1894.40;;;;;;5135585;27;20019;-74
2021/05/04 04:12:56;;;;;;;55.13;31.73;;;256.00;1894.40;;;;;;5135101;27;20045;-74
2021/05/04 04:15:22;;;;;;;37.53;23.70;;;256.00;1868.80;;;;;;5135559;27;20376;-74
2021/05/04 04:17:48;;;;;;;34.92;22.40;;;256.00;1894.40;;;;;;5135115;27;20434;-74
2021/05/04 04:20:14;;;;;;;23.65;17.58;;;256.00;1894.40;;;;;;5135065;27;20030;-75
2021/05/04 04:22:40;;;;;;;24.70;16.33;;;256.10;1894.40;;;;;;5135050;27;20016;-75
2021/05/04 04:25:07;;;;;;;21.25;15.23;;;256.10;1894.40;;;;;;5134213;27;20040;-75
2021/05/04 04:27:33;;;;;;;20.23;15.60;;;256.20;1920.00;;;;;;5134701;27;20058;-75
2021/05/04 04:29:59;;;;;;;19.75;13.82;;;256.40;1920.00;;;;;;5116500;27;20031;-75
2021/05/04 04:32:25;;;;;;;20.52;14.65;;;256.50;1945.60;;;;;;5134827;27;20404;-74
2021/05/04 04:34:53;;;;;;;19.98;14.18;;;256.60;1920.00;;;;;;5134765;27;20023;-74
2021/05/04 04:37:19;;;;;;;20.23;13.80;;;256.70;1920.00;;;;;;5134787;27;20015;-75
2021/05/04 04:39:45;;;;;;;18.27;14.65;;;256.90;1920.00;;;;;;5115813;27;20740;-74
2021/05/04 04:42:10;;;;;;;18.90;13.70;;;281.60;1971.20;;;;;;5134320;27;20034;-75
2021/05/04 04:44:36;;;;;;;18.58;14.82;;;281.70;1971.20;;;;;;5134002;27;20084;-75
2021/05/04 04:47:02;;;;;;;18.08;14.13;;;281.80;1945.60;;;;;;5134529;27;20023;-75
2021/05/04 04:49:28;;;;;;;21.00;15.55;;;281.90;1945.60;;;;;;5134761;27;20031;-75
2021/05/04 04:51:53;;;;;;;24.52;15.05;;;282.00;1920.00;;;;;;5135964;27;20023;-77
2021/05/04 04:54:19;;;;;;;26.40;15.30;;;282.10;1945.60;;;;;;5134201;27;20023;-75
2021/05/04 04:56:45;;;;;;;17.95;13.82;;;282.10;1971.20;;;;;;5134210;27;20023;-74
2021/05/04 04:59:10;;;;;;;18.83;15.13;;;282.20;1971.20;;;;;;5132726;27;20476;-74
2021/05/04 05:01:37;;;;;;;22.25;14.75;;;282.30;1971.20;;;;;;5115574;27;20027;-74
2021/05/04 05:04:04;;;;;;;20.10;15.88;;;282.40;1971.20;;;;;;5114069;28;20122;-74
2021/05/04 05:06:30;;;;;;;17.63;14.85;;;282.50;1945.60;;;;;;5114531;27;20050;-75
2021/05/04 05:08:56;;;;;;;21.13;14.43;;;282.50;1945.60;;;;;;5114846;27;20468;-74
2021/05/04 05:11:22;;;;;;;21.30;14.07;;;307.20;1945.60;;;;;;5115447;27;20051;-74
2021/05/04 05:13:48;;;;;;;17.75;13.40;;;307.30;1945.60;;;;;;5115160;28;20039;-74
2021/05/04 05:16:17;;;;;;;21.20;15.20;;;307.30;1920.00;;;;;;5115429;28;20488;-75
2021/05/04 05:18:43;;;;;;;16.45;13.27;;;307.40;1920.00;;;;;;5133983;28;20487;-75
2021/05/04 05:21:10;;;;;;;18.13;13.82;;;307.50;1920.00;;;;;;5134119;28;20023;-75
2021/05/04 05:23:37;;;;;;;19.23;14.50;;;307.50;1920.00;;;;;;5115347;28;20031;-74
2021/05/04 05:26:04;;;;;;;17.42;12.82;;;307.60;1920.00;;;;;;5114413;28;20495;-74
2021/05/04 05:28:30;;;;;;;14.70;12.90;;;307.80;1868.80;;;;;;5094937;28;20031;-74
2021/05/04 05:30:55;;;;;;;17.13;12.75;;;307.80;1843.20;;;;;;5095128;28;20023;-74
2021/05/04 05:33:22;;;;;;;15.30;12.60;;;307.90;1868.80;;;;;;5094379;28;20496;-76
2021/05/04 05:35:49;;;;;;;16.10;12.68;;;308.00;1843.20;;;;;;5095267;28;20020;-75
2021/05/04 05:38:14;;;;;;;14.18;11.95;;;308.10;1843.20;;;;;;5095197;28;20028;-74
2021/05/04 05:40:40;;;;;;;13.82;11.57;;;332.80;1843.20;;;;;;5094293;28;20031;-74
2021/05/04 05:43:06;;;;;;;14.82;12.13;;;332.90;1843.20;;;;;;5094890;28;20023;-75
2021/05/04 05:45:32;;;;;;;16.50;11.85;;;333.00;1817.60;;;;;;5113770;28;20023;-75
2021/05/04 05:47:57;;;;;;;15.18;12.43;;;333.10;1817.60;;;;;;5113140;28;20362;-75
2021/05/04 05:50:23;;;;;;;13.30;11.32;;;333.10;1843.20;;;;;;5094432;28;20027;-75
2021/05/04 05:52:50;;;;;;;15.38;12.63;;;333.20;1843.20;;;;;;5113270;28;20429;-77
2021/05/04 05:55:15;;;;;;;15.10;13.52;;;333.30;1817.60;;;;;;5113265;28;20045;-75
2021/05/04 05:57:41;;;;;;;17.27;13.05;;;333.30;1792.00;;;;;;5094296;28;20114;-75
2021/05/04 06:00:09;;;;;;;16.13;12.77;;;333.40;1792.00;;;;;;5094657;28;20112;-75
2021/05/04 06:02:35;;;;;;;18.50;13.27;;;333.40;1792.00;;;;;;5113298;28;20084;-75
2021/05/04 06:05:00;;;;;;;20.30;14.07;;;333.40;1792.00;;;;;;5113369;28;20055;-75
2021/05/04 06:07:26;;;;;;;14.88;12.50;;;333.50;1792.00;;;;;;5094370;28;20075;-75
2021/05/04 06:09:52;;;;;;;13.82;11.95;;;333.50;1792.00;;;;;;5093139;28;20039;-74
2021/05/04 06:12:18;;;;;;;20.98;14.40;;;333.60;1766.40;;;;;;5111686;28;20034;-74
2021/05/04 06:14:44;;;;;;;15.38;12.73;;;333.60;1766.40;;;;;;5094919;28;20084;-75
2021/05/04 06:17:10;;;;;;;19.77;13.32;;;333.70;1766.40;;;;;;5097605;28;20032;-76
2021/05/04 06:19:35;;;;;;;17.00;12.57;;;333.70;1740.80;;;;;;5116839;28;20026;-75
2021/05/04 06:22:01;;;;;;;16.00;11.68;;;358.40;1740.80;;;;;;5088859;28;20023;-74
2021/05/04 06:24:27;;;;;;;15.68;11.50;;;358.40;1740.80;;;;;;5095960;28;20393;-75
2021/05/04 06:26:53;;;;;;;12.68;11.35;;;358.50;1740.80;;;;;;5103922;28;20059;-75
2021/05/04 06:29:18;;;;;;;13.38;10.13;;;358.50;1740.80;;;;;;5098280;28;20322;-76
2021/05/04 06:31:47;;;;;;;13.60;10.07;;;358.60;1740.80;;;;;;5096957;28;20029;-75
2021/05/04 06:34:13;;;;;;;12.27;10.18;;;358.60;1715.20;;;;;;5098225;28;20434;-74
2021/05/04 06:36:39;;;;;;;16.23;10.32;;;358.70;1740.80;;;;;;5116288;28;20015;-74
2021/05/04 06:39:05;;;;;;;11.15;8.35;;;358.80;1715.20;;;;;;5097589;28;20657;-74
2021/05/04 06:41:35;;;;;;;14.85;10.23;;;358.90;1715.20;;;;;;5114821;28;20057;-74
2021/05/04 06:44:04;;;;;;;18.48;10.95;;;359.00;1638.40;;;;;;5097806;28;20144;-74
2021/05/04 06:46:31;;;;;;;13.05;9.20;;;359.10;1689.60;;;;;;5129522;27;20034;-73
2021/05/04 06:48:58;;;;;;;13.50;9.93;;;359.20;1689.60;;;;;;5118782;27;20026;-74
2021/05/04 06:51:24;;;;;;;30.70;12.07;;;359.30;1689.60;;;;;;5118936;27;20023;-74
2021/05/04 06:53:50;;;;;;;30.30;8.45;;;384.00;1638.40;;;;;;5136677;27;20038;-73
2021/05/04 06:56:16;;;;;;;21.55;8.45;;;384.10;1612.80;;;;;;5136829;27;20020;-75
2021/05/04 06:58:41;;;;;;;9.10;5.88;;;384.20;1536.00;;;;;;5136066;27;20033;-75
2021/05/04 07:01:07;;;;;;;24.63;7.38;;;384.50;1894.40;;;;;;5117951;27;20031;-73
2021/05/04 07:03:33;;;;;;;58.53;10.50;;;384.70;1792.00;;;;;;5136185;27;20110;-74
2021/05/04 07:05:58;;;;;;;18.48;7.55;;;409.60;1945.60;;;;;;5136435;27;20039;-75
2021/05/04 07:08:24;;;;;;;62.72;8.40;;;409.80;1817.60;;;;;;5117772;27;20033;-74
2021/05/04 07:10:50;;;;;;;45.03;8.45;;;410.00;1817.60;;;;;;5136166;27;20471;-74
2021/05/04 07:13:17;;;;;;;51.25;9.30;;;410.20;1740.80;;;;;;5135185;27;20095;-74
2021/05/04 07:15:43;;;;;;;18.80;8.30;;;410.40;1792.00;;;;;;5116190;27;20027;-73
2021/05/04 07:18:10;;;;;;;26.90;8.23;;;410.50;1689.60;;;;;;5117093;27;20046;-73
2021/05/04 07:20:38;;;;;;;25.20;8.35;;;435.20;1638.40;;;;;;5116754;27;20023;-73
2021/05/04 07:23:07;;;;;;;21.42;7.65;;;435.30;1638.40;;;;;;5116066;27;20118;-73
2021/05/04 07:25:33;;;;;;;23.20;6.30;;;435.30;1459.20;;;;;;5116828;27;20027;-73
2021/05/04 07:28:01;;;;;;;60.95;8.45;;;435.30;1536.00;;;;;;5135798;27;20054;-77
2021/05/04 07:30:28;;;;;;;22.15;6.78;;;435.40;1536.00;;;;;;5134107;27;20039;-76
2021/05/04 07:32:53;;;;;;;34.33;7.20;;;435.50;1510.40;;;;;;5135830;27;20027;-78
2021/05/04 07:35:19;;;;;;;65.85;9.80;;;435.50;1484.80;;;;;;5136190;27;20020;-77
2021/05/04 07:37:45;;;;;;;36.92;9.63;;;435.60;1612.80;;;;;;5141071;27;20349;-78
2021/05/04 07:40:11;;;;;;;48.58;10.13;;;435.60;1433.60;;;;;;5139613;27;20083;-79
2021/05/04 07:42:37;;;;;;;37.47;8.57;;;435.70;1459.20;;;;;;5134219;27;20040;-80
2021/05/04 07:45:04;;;;;;;22.38;6.82;;;435.80;1484.80;;;;;;5133624;27;20019;-78
2021/05/04 07:47:29;;;;;;;32.70;6.95;;;435.80;1484.80;;;;;;5134411;27;20023;-75
2021/05/04 07:49:56;;;;;;;31.55;7.20;;;435.90;1484.80;;;;;;5134182;27;20042;-76
2021/05/04 07:52:22;;;;;;;33.38;5.80;;;436.00;1484.80;;;;;;5135592;27;20054;-74
2021/05/04 07:54:51;;;;;;;88.80;15.40;;;436.00;1356.80;;;;;;5135709;27;20030;-78
2021/05/04 07:57:17;;;;;;;77.05;16.20;;;436.00;1408.00;;;;;;5135338;27;20019;-77
2021/05/04 07:59:43;;;;;;;106.15;18.25;;;436.10;1408.00;;;;;;5135567;27;20019;-77
2021/05/04 08:02:09;;;;;;;47.35;9.63;;;436.10;1408.00;;;;;;5134444;27;20472;-77
2021/05/04 08:04:35;;;;;;;17.92;5.25;;;436.10;1356.80;;;;;;5134409;27;20038;-76
2021/05/04 08:07:04;;;;;;;42.30;8.10;;;460.80;1254.40;;;;;;5133095;27;20026;-77
2021/05/04 08:09:30;;;;;;;35.38;6.60;;;460.90;1382.40;;;;;;5135224;27;20024;-78
2021/05/04 08:11:56;;;;;;;21.58;6.85;;;460.90;1331.20;;;;;;5134524;27;20087;-78
2021/05/04 08:14:23;;;;;;;50.00;7.63;;;461.00;1331.20;;;;;;5135318;27;20015;-79
2021/05/04 08:16:49;;;;;;;82.82;11.25;;;461.10;1331.20;;;;;;5134025;27;20068;-76
2021/05/04 08:19:14;;;;;;;29.17;5.63;;;461.20;1305.60;;;;;;5134013;27;20023;-78
2021/05/04 08:21:43;;;;;;;19.75;5.72;;;461.10;1152.00;;;;;;5135264;27;20111;-78
2021/05/04 08:24:10;;;;;;;28.48;4.55;;;461.10;1280.00;;;;;;5134173;27;20424;-79
2021/05/04 08:26:36;;;;;;;17.00;4.50;;;461.20;1203.20;;;;;;5133867;27;20082;-79
2021/05/04 08:29:02;;;;;;;30.90;5.88;;;461.30;1228.80;;;;;;5134282;27;20027;-81
2021/05/04 08:31:28;;;;;;;17.85;4.78;;;461.30;1280.00;;;;;;5134063;27;20058;-79
2021/05/04 08:33:54;;;;;;;35.95;4.28;;;461.40;1228.80;;;;;;5134180;27;20030;-80
2021/05/04 08:36:20;;;;;;;26.48;5.75;;;461.50;1152.00;;;;;;5134839;27;20043;-77
2021/05/04 08:38:46;;;;;;;96.85;9.80;;;461.50;1152.00;;;;;;5132452;27;20023;-77
2021/05/04 08:41:14;;;;;;;34.92;5.53;;;461.50;1177.60;;;;;;5133656;27;20019;-77
2021/05/04 08:43:46;;;;;;;19.00;4.80;;;461.60;1126.40;;;;;;5134885;27;20029;-78
2021/05/04 08:46:13;;;;;;;34.53;6.15;;;461.70;1126.40;;;;;;5135160;27;20102;-79
2021/05/04 08:48:43;;;;;;;27.08;5.05;;;461.70;1075.20;;;;;;5133504;27;20023;-75
2021/05/04 08:51:10;;;;;;;11.18;3.75;;;461.70;1152.00;;;;;;5134849;27;20125;-78
2021/05/04 08:53:36;;;;;;;16.75;3.50;;;461.70;1049.60;;;;;;5134654;27;20080;-78
2021/05/04 08:56:02;;;;;;;12.40;3.08;;;461.70;1049.60;;;;;;5134810;27;20023;-79
2021/05/04 08:58:28;;;;;;;11.00;2.72;;;461.70;1075.20;;;;;;5132658;27;20027;-77
2021/05/04 09:00:55;;;;;;;51.28;5.53;;;486.40;1126.40;;;;;;5134667;27;20063;-78
2021/05/04 09:03:38;;;;;;;29.40;5.43;;;486.50;1177.60;;;;;;5133452;27;20015;-82
2021/05/04 09:06:09;;;;;;;7.78;3.55;;;486.60;1254.40;;;;;;5134287;27;20500;-87
2021/05/04 09:12:13;;;;;;;66.10;8.63;;;486.60;1152.00;;;;;;5114051;27;20015;-79
2021/05/04 09:22:17;;;;;;;17.45;3.85;;;486.90;1049.60;;;;;;5114457;28;20090;-80
2021/05/04 09:24:44;;;;;;;61.28;8.05;;;486.90;1049.60;;;;;;5094848;28;20016;-80
2021/05/04 09:27:14;;;;;;;42.35;6.43;;;486.90;1177.60;;;;;;5104652;28;20043;-86
2021/05/04 09:29:42;;;;;;;55.58;6.40;;;486.90;1126.40;;;;;;5095384;28;20036;-78
2021/05/04 09:32:11;;;;;;;46.83;6.18;;;487.00;1100.80;;;;;;5095369;28;20441;-81
2021/05/04 09:34:49;;;;;;;36.90;5.88;;;487.00;1049.60;;;;;;5095392;28;20504;-77
2021/05/04 09:37:27;;;;;;;29.40;6.22;;;487.00;1126.40;;;;;;5095108;28;20050;-84
2021/05/04 09:39:53;;;;;;;23.45;5.20;;;487.00;1100.80;;;;;;5096345;28;20062;-82
2021/05/04 09:42:19;;;;;;;20.85;3.75;;;487.10;1100.80;;;;;;5095606;28;20105;-80
2021/05/04 09:44:49;;;;;;;58.63;5.95;;;487.20;1100.80;;;;;;5094845;28;20119;-86
2021/05/04 09:47:23;;;;;;;143.43;14.02;;;487.20;1075.20;;;;;;5113109;28;20598;-79
2021/05/04 09:49:50;;;;;;;106.80;9.30;;;487.20;1075.20;;;;;;5095710;28;20039;-80
2021/05/04 09:55:11;;;;;;;114.05;12.90;;;487.30;1049.60;;;;;;5117930;28;20119;-82
2021/05/04 09:57:50;;;;;;;32.20;3.95;;;512.00;1126.40;;;;;;5117752;28;20043;-81
2021/05/04 10:00:22;;;;;;;89.25;11.32;;;512.00;1075.20;;;;;;5117745;28;20036;-81
2021/05/04 10:02:48;;;;;;;55.90;5.85;;;512.10;1075.20;;;;;;5099344;28;20112;-85
2021/05/04 10:05:17;;;;;;;70.15;8.20;;;512.10;1024.00;;;;;;5099760;28;20027;-81
2021/05/04 10:07:44;;;;;;;31.25;5.07;;;512.10;1049.60;;;;;;5117922;28;20023;-78
2021/05/04 10:10:16;;;;;;;348.02;27.75;;;512.10;1100.80;;;;;;5099243;28;20055;-78
2021/05/04 10:12:44;;;;;;;79.75;6.75;;;512.20;1049.60;;;;;;5099177;28;20030;-80
2021/05/04 10:15:12;;;;;;;100.35;8.82;;;512.30;1075.20;;;;;;5100006;28;20024;-79
2021/05/04 10:17:39;;;;;;;145.32;16.70;;;512.30;1049.60;;;;;;5118012;28;20500;-82
2021/05/04 10:20:17;;;;;;;50.50;9.00;;;512.40;1049.60;;;;;;5099565;28;20024;-78
2021/05/04 10:22:43;;;;;;;60.28;7.82;;;512.50;998.40;;;;;;5116977;28;20023;-77
2021/05/04 10:25:11;;;;;;;24.85;3.75;;;512.50;1049.60;;;;;;5116776;28;20115;-77
2021/05/04 10:27:38;;;;;;;26.70;3.33;;;512.60;1024.00;;;;;;5116818;27;20047;-76
2021/05/04 10:30:06;;;;;;;55.83;6.47;;;512.70;1100.80;;;;;;5098344;28;20031;-77
2021/05/04 10:32:53;;;;;;;40.97;3.78;;;512.70;998.40;;;;;;5098367;28;20031;-77
2021/05/04 10:35:34;;;;;;;73.20;8.43;;;512.70;998.40;;;;;;5116986;28;20020;-78
2021/05/04 10:38:03;;;;;;;73.75;8.20;;;512.80;998.40;;;;;;5099080;28;20020;-78
2021/05/04 10:40:30;;;;;;;42.60;4.53;;;512.80;1049.60;;;;;;5097795;28;20507;-78
2021/05/04 10:42:58;;;;;;;62.78;5.90;;;512.90;1024.00;;;;;;5116191;28;20020;-77
2021/05/04 10:45:43;;;;;;;14.70;2.75;;;512.90;972.80;;;;;;5098167;28;20485;-78
2021/05/04 10:48:09;;;;;;;111.43;9.18;;;537.60;972.80;;;;;;5098916;28;20039;-77
2021/05/04 10:50:55;;;;;;;18.35;2.72;;;537.70;998.40;;;;;;5099531;28;20488;-77
2021/05/04 10:53:25;;;;;;;78.78;6.60;;;537.70;1024.00;;;;;;5101860;28;20077;-77
2021/05/04 10:55:54;;;;;;;36.75;3.55;;;537.70;998.40;;;;;;5123457;28;20030;-78
2021/05/04 10:58:23;;;;;;;11.32;2.03;;;537.80;998.40;;;;;;5137041;28;20045;-78
2021/05/04 11:00:52;;;;;;;29.45;3.03;;;537.90;1024.00;;;;;;5103839;28;20039;-79
2021/05/04 11:03:32;;;;;;;33.10;5.38;;;538.00;998.40;;;;;;5116604;28;20066;-79
2021/05/04 11:06:13;;;;;;;25.88;3.33;;;538.10;1024.00;;;;;;5098392;28;20015;-79
2021/05/04 11:08:42;;;;;;;14.40;2.63;;;538.10;1024.00;;;;;;5081576;28;20556;-79
2021/05/04 11:11:36;;;;;;;18.30;3.28;;;538.10;1049.60;;;;;;5098024;28;20020;-79
2021/05/04 11:14:16;;;;;;;47.75;4.93;;;538.20;1049.60;;;;;;5116101;28;20473;-78
2021/05/04 11:16:46;;;;;;;;;;;538.20;1024.00;;;;;;5098254;28;20069;-80
2021/05/04 11:19:16;;;;;;;44.20;3.15;;;538.30;998.40;;;;;;5116267;28;19904;-79
2021/05/04 11:21:48;;;;;;;13.63;2.03;;;538.30;998.40;;;;;;5115848;28;20027;-78
2021/05/04 11:24:16;;;;;;;14.77;2.97;;;538.20;921.60;;;;;;5116059;28;20023;-81
2021/05/04 11:26:58;;;;;;;18.83;3.10;;;538.40;921.60;;;;;;5122275;27;20054;-79
2021/05/04 11:29:39;;;;;;;14.65;2.40;;;563.30;921.60;;;;;;5135161;27;20499;-76
2021/05/04 11:32:27;;;;;;;10.63;1.70;;;563.40;947.20;;;;;;5135974;27;20027;-77
2021/05/04 11:35:04;;;;;;;18.27;2.03;;;563.70;947.20;;;;;;5136382;27;20102;-77
2021/05/04 11:37:32;;;;;;;18.60;2.20;;;563.70;896.00;;;;;;5136463;27;20102;-77
2021/05/04 11:40:02;;;;;;;21.90;2.78;;;563.80;896.00;;;;;;5136801;27;20042;-77
2021/05/04 11:44:34;;;;;;;14.50;2.20;;;563.80;1152.00;;;;;;5090994;28;20383;-79
2021/05/04 11:47:25;;;;;;;24.27;3.55;;;563.80;947.20;;;;;;5089684;28;20030;-79
2021/05/04 11:49:51;;;;;;;35.30;3.15;;;563.70;921.60;;;;;;5089605;28;20027;-81
2021/05/04 11:52:17;;;;;;;14.85;1.90;;;563.60;947.20;;;;;;5089512;28;20513;-79
2021/05/04 11:54:46;;;;;;;2.30;1.27;;;563.60;896.00;;;;;;5089834;28;20036;-78
2021/05/04 11:57:12;;;;;;;10.43;1.33;;;563.60;947.20;;;;;;5089420;28;20024;-77
2021/05/04 11:59:38;;;;;;;28.60;2.47;;;563.70;947.20;;;;;;5089313;28;20372;-78
2021/05/04 12:02:04;;;;;;;99.55;8.13;;;563.70;972.80;;;;;;5090681;28;20048;-86
2021/05/04 12:04:46;;;;;;;23.98;3.33;;;563.80;1075.20;;;;;;5092345;28;20491;-86
2021/05/04 12:07:12;;;;;;;86.25;9.43;;;563.80;1024.00;;;;;;5093690;28;20115;-78
2021/05/04 12:09:38;;;;;;;67.72;6.40;;;563.70;998.40;;;;;;5090864;28;20119;-80
2021/05/04 12:12:13;;;;;;;28.17;2.88;;;563.70;998.40;;;;;;5089459;28;20043;-80
2021/05/04 12:14:56;;;;;;;7.40;2.47;;;563.50;947.20;;;;;;5088562;28;20082;-79
2021/05/04 12:17:26;;;;;;;7.10;1.27;;;563.70;947.20;;;;;;5088986;28;20055;-79
2021/05/04 12:20:08;;;;;;;24.92;3.17;;;563.70;896.00;;;;;;5090261;28;20464;-83
2021/05/04 12:22:46;;;;;;;16.55;1.95;;;563.70;998.40;;;;;;5090120;28;20028;-81